sensor_id;sensor_type;location;lat;lon;timestamp;P1;durP1;ratioP1;P2;durP2;ratioP2
22460;SDS011;11397;48.410;11.468;2022-08-03T00:04:25;6.68;;;6.47;;
22460;SDS011;11397;48.410;11.468;2022-08-03T00:09:28;6.80;;;6.60;;
22460;SDS011;11397;48.410;11.468;2022-08-03T00:14:30;6.93;;;6.72;;
22460;SDS011;11397;48.410;11.468;2022-08-03T00:19:32;6.60;;;6.40;;
22460;SDS011;11397;48.410;11.468;2022-08-03T00:24:34;6.80;;;6.60;;
22460;SDS011;11397;48.410;11.468;2022-08-03T00:29:36;6.82;;;6.63;;
22460;SDS011;11397;48.410;11.468;2022-08-03T00:34:37;7.07;;;6.88;;
22460;SDS011;11397;48.410;11.468;2022-08-03T00:39:40;6.53;;;6.32;;
22460;SDS011;11397;48.410;11.468;2022-08-03T00:44:42;6.95;;;6.75;;
22460;SDS011;11397;48.410;11.468;2022-08-03T00:49:44;7.05;;;6.85;;
22460;SDS011;11397;48.410;11.468;2022-08-03T00:54:47;6.93;;;6.72;;
22460;SDS011;11397;48.410;11.468;2022-08-03T00:59:49;7.70;;;7.40;;
22460;SDS011;11397;48.410;11.468;2022-08-03T01:04:51;6.82;;;6.63;;
22460;SDS011;11397;48.410;11.468;2022-08-03T01:09:56;8.05;;;7.75;;
22460;SDS011;11397;48.410;11.468;2022-08-03T01:15:02;7.97;;;7.68;;
22460;SDS011;11397;48.410;11.468;2022-08-03T01:20:07;7.68;;;7.38;;
22460;SDS011;11397;48.410;11.468;2022-08-03T01:25:13;7.85;;;7.55;;
22460;SDS011;11397;48.410;11.468;2022-08-03T01:30:20;7.50;;;7.20;;
22460;SDS011;11397;48.410;11.468;2022-08-03T01:35:25;7.40;;;7.13;;
22460;SDS011;11397;48.410;11.468;2022-08-03T01:40:27;7.90;;;7.60;;
22460;SDS011;11397;48.410;11.468;2022-08-03T01:45:31;8.10;;;7.80;;
22460;SDS011;11397;48.410;11.468;2022-08-03T01:50:33;8.13;;;7.82;;
22460;SDS011;11397;48.410;11.468;2022-08-03T01:55:34;7.82;;;7.53;;
22460;SDS011;11397;48.410;11.468;2022-08-03T02:00:38;7.88;;;7.57;;
22460;SDS011;11397;48.410;11.468;2022-08-03T02:05:41;6.85;;;6.65;;
22460;SDS011;11397;48.410;11.468;2022-08-03T02:10:43;7.78;;;7.47;;
22460;SDS011;11397;48.410;11.468;2022-08-03T02:15:48;7.78;;;7.47;;
22460;SDS011;11397;48.410;11.468;2022-08-03T02:20:50;7.95;;;7.65;;
22460;SDS011;11397;48.410;11.468;2022-08-03T02:25:53;8.82;;;8.52;;
22460;SDS011;11397;48.410;11.468;2022-08-03T02:30:59;7.97;;;7.68;;
22460;SDS011;11397;48.410;11.468;2022-08-03T02:36:02;7.53;;;7.22;;
22460;SDS011;11397;48.410;11.468;2022-08-03T02:41:06;8.05;;;7.75;;
22460;SDS011;11397;48.410;11.468;2022-08-03T02:46:10;7.65;;;7.35;;
22460;SDS011;11397;48.410;11.468;2022-08-03T02:51:13;8.07;;;7.78;;
22460;SDS011;11397;48.410;11.468;2022-08-03T02:56:16;8.20;;;7.90;;
22460;SDS011;11397;48.410;11.468;2022-08-03T03:01:21;8.13;;;7.82;;
22460;SDS011;11397;48.410;11.468;2022-08-03T03:06:23;8.18;;;7.88;;
22460;SDS011;11397;48.410;11.468;2022-08-03T03:11:25;8.27;;;7.97;;
22460;SDS011;11397;48.410;11.468;2022-08-03T03:16:29;8.68;;;8.38;;
22460;SDS011;11397;48.410;11.468;2022-08-03T03:21:31;8.40;;;8.10;;
22460;SDS011;11397;48.410;11.468;2022-08-03T03:26:33;8.73;;;8.43;;
22460;SDS011;11397;48.410;11.468;2022-08-03T03:31:37;8.07;;;7.78;;
22460;SDS011;11397;48.410;11.468;2022-08-03T03:36:38;8.35;;;8.05;;
22460;SDS011;11397;48.410;11.468;2022-08-03T03:41:40;8.90;;;8.60;;
22460;SDS011;11397;48.410;11.468;2022-08-03T03:46:43;8.18;;;7.88;;
22460;SDS011;11397;48.410;11.468;2022-08-03T03:51:45;9.13;;;8.82;;
22460;SDS011;11397;48.410;11.468;2022-08-03T03:56:47;7.18;;;6.97;;
22460;SDS011;11397;48.410;11.468;2022-08-03T04:01:50;8.20;;;7.90;;
22460;SDS011;11397;48.410;11.468;2022-08-03T04:06:52;8.27;;;7.97;;
22460;SDS011;11397;48.410;11.468;2022-08-03T04:12:11;9.00;;;8.70;;
22460;SDS011;11397;48.410;11.468;2022-08-03T04:17:14;8.10;;;7.80;;
22460;SDS011;11397;48.410;11.468;2022-08-03T04:22:21;9.30;;;8.90;;
22460;SDS011;11397;48.410;11.468;2022-08-03T04:27:26;7.97;;;7.68;;
22460;SDS011;11397;48.410;11.468;2022-08-03T04:32:30;8.68;;;8.38;;
22460;SDS011;11397;48.410;11.468;2022-08-03T04:37:34;7.68;;;7.38;;
22460;SDS011;11397;48.410;11.468;2022-08-03T04:42:38;9.32;;;9.02;;
22460;SDS011;11397;48.410;11.468;2022-08-03T04:47:42;8.55;;;8.25;;
22460;SDS011;11397;48.410;11.468;2022-08-03T04:52:43;8.38;;;8.07;;
22460;SDS011;11397;48.410;11.468;2022-08-03T04:57:45;8.18;;;7.88;;
22460;SDS011;11397;48.410;11.468;2022-08-03T05:02:48;9.65;;;9.27;;
22460;SDS011;11397;48.410;11.468;2022-08-03T05:07:50;9.02;;;8.73;;
22460;SDS011;11397;48.410;11.468;2022-08-03T05:12:51;9.50;;;9.20;;
22460;SDS011;11397;48.410;11.468;2022-08-03T05:17:54;8.63;;;8.32;;
22460;SDS011;11397;48.410;11.468;2022-08-03T05:22:56;9.88;;;9.48;;
22460;SDS011;11397;48.410;11.468;2022-08-03T05:27:59;8.88;;;8.57;;
22460;SDS011;11397;48.410;11.468;2022-08-03T05:33:02;9.05;;;8.75;;
22460;SDS011;11397;48.410;11.468;2022-08-03T05:38:04;9.05;;;8.75;;
22460;SDS011;11397;48.410;11.468;2022-08-03T05:43:06;9.48;;;9.07;;
22460;SDS011;11397;48.410;11.468;2022-08-03T05:48:09;9.68;;;9.32;;
22460;SDS011;11397;48.410;11.468;2022-08-03T05:53:10;9.25;;;8.95;;
22460;SDS011;11397;48.410;11.468;2022-08-03T05:58:12;9.35;;;9.05;;
22460;SDS011;11397;48.410;11.468;2022-08-03T06:03:15;9.70;;;9.32;;
22460;SDS011;11397;48.410;11.468;2022-08-03T06:08:17;8.98;;;8.68;;
22460;SDS011;11397;48.410;11.468;2022-08-03T06:13:18;9.27;;;8.98;;
22460;SDS011;11397;48.410;11.468;2022-08-03T06:18:21;9.15;;;8.85;;
22460;SDS011;11397;48.410;11.468;2022-08-03T06:23:23;8.95;;;8.65;;
22460;SDS011;11397;48.410;11.468;2022-08-03T06:28:25;8.77;;;8.48;;
22460;SDS011;11397;48.410;11.468;2022-08-03T06:33:28;8.98;;;8.68;;
22460;SDS011;11397;48.410;11.468;2022-08-03T06:38:30;9.20;;;8.90;;
22460;SDS011;11397;48.410;11.468;2022-08-03T06:43:31;9.02;;;8.73;;
22460;SDS011;11397;48.410;11.468;2022-08-03T06:48:36;8.65;;;8.35;;
22460;SDS011;11397;48.410;11.468;2022-08-03T06:53:38;7.90;;;7.60;;
22460;SDS011;11397;48.410;11.468;2022-08-03T06:58:39;8.27;;;7.97;;
22460;SDS011;11397;48.410;11.468;2022-08-03T07:03:42;7.68;;;7.38;;
22460;SDS011;11397;48.410;11.468;2022-08-03T07:08:44;7.03;;;6.82;;
22460;SDS011;11397;48.410;11.468;2022-08-03T07:13:46;7.80;;;7.50;;
22460;SDS011;11397;48.410;11.468;2022-08-03T07:18:49;7.18;;;6.97;;
22460;SDS011;11397;48.410;11.468;2022-08-03T07:23:50;7.70;;;7.40;;
22460;SDS011;11397;48.410;11.468;2022-08-03T07:28:52;7.05;;;6.85;;
22460;SDS011;11397;48.410;11.468;2022-08-03T07:33:55;7.20;;;7.00;;
22460;SDS011;11397;48.410;11.468;2022-08-03T07:38:57;6.88;;;6.68;;
22460;SDS011;11397;48.410;11.468;2022-08-03T07:43:59;6.90;;;6.70;;
22460;SDS011;11397;48.410;11.468;2022-08-03T07:49:02;7.53;;;7.22;;
22460;SDS011;11397;48.410;11.468;2022-08-03T07:54:06;6.28;;;6.07;;
22460;SDS011;11397;48.410;11.468;2022-08-03T07:59:09;6.88;;;6.68;;
22460;SDS011;11397;48.410;11.468;2022-08-03T08:04:12;6.72;;;6.53;;
22460;SDS011;11397;48.410;11.468;2022-08-03T08:09:14;6.95;;;6.75;;
22460;SDS011;11397;48.410;11.468;2022-08-03T08:14:16;6.60;;;6.40;;
22460;SDS011;11397;48.410;11.468;2022-08-03T08:19:19;6.30;;;6.10;;
22460;SDS011;11397;48.410;11.468;2022-08-03T08:24:20;6.18;;;5.97;;
22460;SDS011;11397;48.410;11.468;2022-08-03T08:29:22;6.47;;;6.28;;
22460;SDS011;11397;48.410;11.468;2022-08-03T08:34:26;6.50;;;6.30;;
22460;SDS011;11397;48.410;11.468;2022-08-03T08:39:27;6.32;;;6.13;;
22460;SDS011;11397;48.410;11.468;2022-08-03T08:44:29;6.30;;;6.10;;
22460;SDS011;11397;48.410;11.468;2022-08-03T08:49:32;5.53;;;5.32;;
22460;SDS011;11397;48.410;11.468;2022-08-03T08:54:36;5.80;;;5.60;;
22460;SDS011;11397;48.410;11.468;2022-08-03T08:59:40;5.57;;;5.38;;
22460;SDS011;11397;48.410;11.468;2022-08-03T09:04:44;4.93;;;4.82;;
22460;SDS011;11397;48.410;11.468;2022-08-03T09:09:48;5.20;;;5.00;;
22460;SDS011;11397;48.410;11.468;2022-08-03T09:14:49;5.13;;;4.93;;
22460;SDS011;11397;48.410;11.468;2022-08-03T09:20:04;4.97;;;4.88;;
22460;SDS011;11397;48.410;11.468;2022-08-03T09:25:07;4.90;;;4.80;;
22460;SDS011;11397;48.410;11.468;2022-08-03T09:30:11;4.70;;;4.60;;
22460;SDS011;11397;48.410;11.468;2022-08-03T09:35:15;4.70;;;4.60;;
22460;SDS011;11397;48.410;11.468;2022-08-03T09:40:27;4.90;;;4.80;;
22460;SDS011;11397;48.410;11.468;2022-08-03T09:45:34;4.07;;;3.97;;
22460;SDS011;11397;48.410;11.468;2022-08-03T09:50:47;4.30;;;4.20;;
22460;SDS011;11397;48.410;11.468;2022-08-03T09:55:50;4.50;;;4.40;;
22460;SDS011;11397;48.410;11.468;2022-08-03T10:00:53;4.40;;;4.30;;
22460;SDS011;11397;48.410;11.468;2022-08-03T10:05:57;4.60;;;4.50;;
22460;SDS011;11397;48.410;11.468;2022-08-03T10:10:58;4.18;;;4.07;;
22460;SDS011;11397;48.410;11.468;2022-08-03T10:16:00;4.28;;;4.18;;
22460;SDS011;11397;48.410;11.468;2022-08-03T10:21:06;4.20;;;4.10;;
22460;SDS011;11397;48.410;11.468;2022-08-03T10:26:08;3.85;;;3.75;;
22460;SDS011;11397;48.410;11.468;2022-08-03T10:31:12;3.97;;;3.88;;
22460;SDS011;11397;48.410;11.468;2022-08-03T10:36:15;3.70;;;3.60;;
22460;SDS011;11397;48.410;11.468;2022-08-03T10:41:18;3.67;;;3.58;;
22460;SDS011;11397;48.410;11.468;2022-08-03T10:46:20;3.65;;;3.55;;
22460;SDS011;11397;48.410;11.468;2022-08-03T10:51:23;3.55;;;3.45;;
22460;SDS011;11397;48.410;11.468;2022-08-03T10:56:39;3.60;;;3.50;;
22460;SDS011;11397;48.410;11.468;2022-08-03T11:01:58;3.33;;;3.22;;
22460;SDS011;11397;48.410;11.468;2022-08-03T11:12:22;3.40;;;3.30;;
22460;SDS011;11397;48.410;11.468;2022-08-03T11:17:24;3.55;;;3.45;;
22460;SDS011;11397;48.410;11.468;2022-08-03T11:22:46;3.50;;;3.40;;
22460;SDS011;11397;48.410;11.468;2022-08-03T11:27:50;3.20;;;3.10;;
22460;SDS011;11397;48.410;11.468;2022-08-03T11:33:12;3.22;;;3.13;;
22460;SDS011;11397;48.410;11.468;2022-08-03T11:38:29;3.30;;;3.20;;
22460;SDS011;11397;48.410;11.468;2022-08-03T11:43:44;3.30;;;3.20;;
22460;SDS011;11397;48.410;11.468;2022-08-03T11:48:47;3.30;;;3.20;;
22460;SDS011;11397;48.410;11.468;2022-08-03T11:53:53;3.20;;;3.10;;
22460;SDS011;11397;48.410;11.468;2022-08-03T11:58:56;3.20;;;3.10;;
22460;SDS011;11397;48.410;11.468;2022-08-03T12:04:01;3.20;;;3.10;;
22460;SDS011;11397;48.410;11.468;2022-08-03T12:09:13;3.00;;;2.90;;
22460;SDS011;11397;48.410;11.468;2022-08-03T12:14:17;3.40;;;3.30;;
22460;SDS011;11397;48.410;11.468;2022-08-03T12:19:18;3.20;;;3.10;;
22460;SDS011;11397;48.410;11.468;2022-08-03T12:24:20;3.28;;;3.17;;
22460;SDS011;11397;48.410;11.468;2022-08-03T12:29:23;3.05;;;2.95;;
22460;SDS011;11397;48.410;11.468;2022-08-03T12:39:41;3.17;;;3.08;;
22460;SDS011;11397;48.410;11.468;2022-08-03T12:44:44;3.10;;;3.00;;
22460;SDS011;11397;48.410;11.468;2022-08-03T12:49:50;3.10;;;3.00;;
22460;SDS011;11397;48.410;11.468;2022-08-03T12:54:56;3.00;;;2.90;;
22460;SDS011;11397;48.410;11.468;2022-08-03T12:59:59;3.00;;;2.90;;
22460;SDS011;11397;48.410;11.468;2022-08-03T13:05:10;3.20;;;3.10;;
22460;SDS011;11397;48.410;11.468;2022-08-03T13:10:25;3.20;;;3.10;;
22460;SDS011;11397;48.410;11.468;2022-08-03T13:15:29;2.80;;;2.72;;
22460;SDS011;11397;48.410;11.468;2022-08-03T13:20:31;2.60;;;2.60;;
22460;SDS011;11397;48.410;11.468;2022-08-03T13:25:32;3.00;;;2.90;;
22460;SDS011;11397;48.410;11.468;2022-08-03T13:30:36;2.88;;;2.78;;
22460;SDS011;11397;48.410;11.468;2022-08-03T13:35:37;2.60;;;2.60;;
22460;SDS011;11397;48.410;11.468;2022-08-03T13:40:39;2.65;;;2.65;;
22460;SDS011;11397;48.410;11.468;2022-08-03T13:45:42;2.60;;;2.60;;
22460;SDS011;11397;48.410;11.468;2022-08-03T13:50:43;2.50;;;2.50;;
22460;SDS011;11397;48.410;11.468;2022-08-03T13:55:45;2.40;;;2.40;;
22460;SDS011;11397;48.410;11.468;2022-08-03T14:00:48;2.50;;;2.50;;
22460;SDS011;11397;48.410;11.468;2022-08-03T14:05:50;2.50;;;2.50;;
22460;SDS011;11397;48.410;11.468;2022-08-03T14:10:51;2.50;;;2.50;;
22460;SDS011;11397;48.410;11.468;2022-08-03T14:15:54;2.40;;;2.40;;
22460;SDS011;11397;48.410;11.468;2022-08-03T14:20:56;2.40;;;2.40;;
22460;SDS011;11397;48.410;11.468;2022-08-03T14:25:58;2.35;;;2.35;;
22460;SDS011;11397;48.410;11.468;2022-08-03T14:31:01;2.47;;;2.47;;
22460;SDS011;11397;48.410;11.468;2022-08-03T14:36:03;2.50;;;2.50;;
22460;SDS011;11397;48.410;11.468;2022-08-03T14:41:04;2.25;;;2.25;;
22460;SDS011;11397;48.410;11.468;2022-08-03T14:46:08;2.30;;;2.30;;
22460;SDS011;11397;48.410;11.468;2022-08-03T14:51:09;2.35;;;2.35;;
22460;SDS011;11397;48.410;11.468;2022-08-03T14:56:11;2.40;;;2.40;;
22460;SDS011;11397;48.410;11.468;2022-08-03T15:01:14;2.42;;;2.42;;
22460;SDS011;11397;48.410;11.468;2022-08-03T15:06:15;2.20;;;2.20;;
22460;SDS011;11397;48.410;11.468;2022-08-03T15:11:17;2.40;;;2.40;;
22460;SDS011;11397;48.410;11.468;2022-08-03T15:16:20;2.60;;;2.60;;
22460;SDS011;11397;48.410;11.468;2022-08-03T15:21:22;2.60;;;2.60;;
22460;SDS011;11397;48.410;11.468;2022-08-03T15:26:23;2.50;;;2.50;;
22460;SDS011;11397;48.410;11.468;2022-08-03T15:31:26;2.60;;;2.60;;
22460;SDS011;11397;48.410;11.468;2022-08-03T15:36:28;2.42;;;2.42;;
22460;SDS011;11397;48.410;11.468;2022-08-03T15:41:29;2.50;;;2.50;;
22460;SDS011;11397;48.410;11.468;2022-08-03T15:46:32;2.42;;;2.42;;
22460;SDS011;11397;48.410;11.468;2022-08-03T15:51:34;2.58;;;2.58;;
22460;SDS011;11397;48.410;11.468;2022-08-03T15:56:36;2.55;;;2.55;;
22460;SDS011;11397;48.410;11.468;2022-08-03T16:01:39;2.47;;;2.47;;
22460;SDS011;11397;48.410;11.468;2022-08-03T16:06:40;2.60;;;2.60;;
22460;SDS011;11397;48.410;11.468;2022-08-03T16:11:42;2.65;;;2.65;;
22460;SDS011;11397;48.410;11.468;2022-08-03T16:16:45;3.10;;;3.00;;
22460;SDS011;11397;48.410;11.468;2022-08-03T16:21:46;3.10;;;3.00;;
22460;SDS011;11397;48.410;11.468;2022-08-03T16:26:48;2.90;;;2.80;;
22460;SDS011;11397;48.410;11.468;2022-08-03T16:31:51;3.20;;;3.10;;
22460;SDS011;11397;48.410;11.468;2022-08-03T16:36:52;3.20;;;3.10;;
22460;SDS011;11397;48.410;11.468;2022-08-03T16:41:55;3.13;;;3.03;;
22460;SDS011;11397;48.410;11.468;2022-08-03T16:46:58;3.30;;;3.20;;
22460;SDS011;11397;48.410;11.468;2022-08-03T16:51:59;3.50;;;3.40;;
22460;SDS011;11397;48.410;11.468;2022-08-03T16:57:01;3.35;;;3.25;;
22460;SDS011;11397;48.410;11.468;2022-08-03T17:02:04;3.30;;;3.20;;
22460;SDS011;11397;48.410;11.468;2022-08-03T17:07:06;3.40;;;3.30;;
22460;SDS011;11397;48.410;11.468;2022-08-03T17:12:08;3.28;;;3.17;;
22460;SDS011;11397;48.410;11.468;2022-08-03T17:17:14;3.40;;;3.30;;
22460;SDS011;11397;48.410;11.468;2022-08-03T17:22:17;3.42;;;3.33;;
22460;SDS011;11397;48.410;11.468;2022-08-03T17:27:19;3.28;;;3.17;;
22460;SDS011;11397;48.410;11.468;2022-08-03T17:32:22;3.40;;;3.30;;
22460;SDS011;11397;48.410;11.468;2022-08-03T17:37:24;3.38;;;3.28;;
22460;SDS011;11397;48.410;11.468;2022-08-03T17:42:26;3.20;;;3.10;;
22460;SDS011;11397;48.410;11.468;2022-08-03T17:47:30;3.50;;;3.40;;
22460;SDS011;11397;48.410;11.468;2022-08-03T17:52:33;3.60;;;3.50;;
22460;SDS011;11397;48.410;11.468;2022-08-03T17:57:38;3.50;;;3.40;;
22460;SDS011;11397;48.410;11.468;2022-08-03T18:02:42;2.90;;;2.80;;
22460;SDS011;11397;48.410;11.468;2022-08-03T18:08:07;3.50;;;3.40;;
22460;SDS011;11397;48.410;11.468;2022-08-03T18:13:11;3.70;;;3.60;;
22460;SDS011;11397;48.410;11.468;2022-08-03T18:18:15;4.00;;;3.90;;
22460;SDS011;11397;48.410;11.468;2022-08-03T18:23:17;3.90;;;3.80;;
22460;SDS011;11397;48.410;11.468;2022-08-03T18:28:19;4.10;;;4.00;;
22460;SDS011;11397;48.410;11.468;2022-08-03T18:33:23;3.95;;;3.85;;
22460;SDS011;11397;48.410;11.468;2022-08-03T18:38:26;4.10;;;4.00;;
22460;SDS011;11397;48.410;11.468;2022-08-03T18:43:29;4.30;;;4.20;;
22460;SDS011;11397;48.410;11.468;2022-08-03T18:48:34;4.18;;;4.07;;
22460;SDS011;11397;48.410;11.468;2022-08-03T18:53:37;4.38;;;4.28;;
22460;SDS011;11397;48.410;11.468;2022-08-03T18:58:43;4.50;;;4.40;;
22460;SDS011;11397;48.410;11.468;2022-08-03T19:03:48;4.57;;;4.47;;
22460;SDS011;11397;48.410;11.468;2022-08-03T19:08:53;4.38;;;4.28;;
22460;SDS011;11397;48.410;11.468;2022-08-03T19:13:57;4.55;;;4.45;;
22460;SDS011;11397;48.410;11.468;2022-08-03T19:19:00;4.90;;;4.80;;
22460;SDS011;11397;48.410;11.468;2022-08-03T19:24:05;4.68;;;4.57;;
22460;SDS011;11397;48.410;11.468;2022-08-03T19:29:08;4.72;;;4.63;;
22460;SDS011;11397;48.410;11.468;2022-08-03T19:34:11;5.18;;;5.00;;
22460;SDS011;11397;48.410;11.468;2022-08-03T19:39:14;4.80;;;4.70;;
22460;SDS011;11397;48.410;11.468;2022-08-03T19:44:18;4.75;;;4.65;;
22460;SDS011;11397;48.410;11.468;2022-08-03T19:49:22;5.30;;;5.10;;
22460;SDS011;11397;48.410;11.468;2022-08-03T19:54:25;4.93;;;4.82;;
22460;SDS011;11397;48.410;11.468;2022-08-03T19:59:28;4.80;;;4.70;;
22460;SDS011;11397;48.410;11.468;2022-08-03T20:04:32;4.80;;;4.70;;
22460;SDS011;11397;48.410;11.468;2022-08-03T20:09:34;4.85;;;4.75;;
22460;SDS011;11397;48.410;11.468;2022-08-03T20:14:36;5.00;;;4.90;;
22460;SDS011;11397;48.410;11.468;2022-08-03T20:19:39;4.95;;;4.85;;
22460;SDS011;11397;48.410;11.468;2022-08-03T20:24:41;5.30;;;5.10;;
22460;SDS011;11397;48.410;11.468;2022-08-03T20:29:44;5.20;;;5.00;;
22460;SDS011;11397;48.410;11.468;2022-08-03T20:34:49;5.20;;;5.00;;
22460;SDS011;11397;48.410;11.468;2022-08-03T20:39:51;5.40;;;5.20;;
22460;SDS011;11397;48.410;11.468;2022-08-03T20:44:53;5.40;;;5.20;;
22460;SDS011;11397;48.410;11.468;2022-08-03T20:49:57;5.15;;;4.95;;
22460;SDS011;11397;48.410;11.468;2022-08-03T20:54:58;5.03;;;4.90;;
22460;SDS011;11397;48.410;11.468;2022-08-03T21:00:00;5.13;;;4.93;;
22460;SDS011;11397;48.410;11.468;2022-08-03T21:05:09;5.10;;;4.95;;
22460;SDS011;11397;48.410;11.468;2022-08-03T21:10:12;5.60;;;5.40;;
22460;SDS011;11397;48.410;11.468;2022-08-03T21:15:14;5.07;;;4.88;;
22460;SDS011;11397;48.410;11.468;2022-08-03T21:20:18;5.53;;;5.32;;
22460;SDS011;11397;48.410;11.468;2022-08-03T21:25:21;5.30;;;5.10;;
22460;SDS011;11397;48.410;11.468;2022-08-03T21:30:25;5.13;;;4.97;;
22460;SDS011;11397;48.410;11.468;2022-08-03T21:35:28;5.22;;;5.03;;
22460;SDS011;11397;48.410;11.468;2022-08-03T21:40:29;5.47;;;5.28;;
22460;SDS011;11397;48.410;11.468;2022-08-03T21:45:32;5.15;;;4.97;;
22460;SDS011;11397;48.410;11.468;2022-08-03T21:50:36;5.43;;;5.22;;
22460;SDS011;11397;48.410;11.468;2022-08-03T21:55:38;5.10;;;4.90;;
22460;SDS011;11397;48.410;11.468;2022-08-03T22:00:40;5.70;;;5.50;;
22460;SDS011;11397;48.410;11.468;2022-08-03T22:05:44;5.40;;;5.20;;
22460;SDS011;11397;48.410;11.468;2022-08-03T22:10:46;5.88;;;5.68;;
22460;SDS011;11397;48.410;11.468;2022-08-03T22:15:48;5.10;;;4.90;;
22460;SDS011;11397;48.410;11.468;2022-08-03T22:20:52;5.75;;;5.55;;
22460;SDS011;11397;48.410;11.468;2022-08-03T22:25:53;5.15;;;4.95;;
22460;SDS011;11397;48.410;11.468;2022-08-03T22:30:56;5.32;;;5.13;;
22460;SDS011;11397;48.410;11.468;2022-08-03T22:36:00;5.63;;;5.43;;
22460;SDS011;11397;48.410;11.468;2022-08-03T22:41:04;5.40;;;5.20;;
22460;SDS011;11397;48.410;11.468;2022-08-03T22:46:06;5.32;;;5.13;;
22460;SDS011;11397;48.410;11.468;2022-08-03T22:51:09;5.75;;;5.55;;
22460;SDS011;11397;48.410;11.468;2022-08-03T22:56:11;5.57;;;5.38;;
22460;SDS011;11397;48.410;11.468;2022-08-03T23:01:13;5.90;;;5.70;;
22460;SDS011;11397;48.410;11.468;2022-08-03T23:06:18;5.38;;;5.18;;
22460;SDS011;11397;48.410;11.468;2022-08-03T23:11:21;5.63;;;5.43;;
22460;SDS011;11397;48.410;11.468;2022-08-03T23:16:24;5.80;;;5.60;;
22460;SDS011;11397;48.410;11.468;2022-08-03T23:21:27;5.70;;;5.50;;
22460;SDS011;11397;48.410;11.468;2022-08-03T23:26:29;5.63;;;5.43;;
22460;SDS011;11397;48.410;11.468;2022-08-03T23:31:31;5.93;;;5.72;;
22460;SDS011;11397;48.410;11.468;2022-08-03T23:36:34;6.22;;;6.03;;
22460;SDS011;11397;48.410;11.468;2022-08-03T23:41:36;5.60;;;5.40;;
22460;SDS011;11397;48.410;11.468;2022-08-03T23:46:39;5.72;;;5.53;;
22460;SDS011;11397;48.410;11.468;2022-08-03T23:51:45;5.43;;;5.22;;
22460;SDS011;11397;48.410;11.468;2022-08-03T23:56:50;5.78;;;5.57;;
